SPQU/AQP METAR and TAF weather

Enter ICAO airport designator
Station Type Date Time Source
SPQU METAR 2019/12/16 03:00 UTC NOAA

SPQU 160300Z VRB01KT CAVOK 14/07 Q1027 RMK PP000


Station Type Date Time Source
SPQU Decoded METAR 2019/12/16 03:00 UTC NOAA

Arequipa, Peru (SPQU) 16-19S 071-33W 2539M
Dec 15, 2019 - 10:00 PM EST / 2019.12.16 0300 UTC
Wind: Variable at 1 MPH (1 KT):0
Visibility: greater than 7 mile(s):0
Temperature: 57 F (14 C)
Dew Point: 44 F (7 C)
Relative Humidity: 62%
Pressure (altimeter): 30.33 in. Hg (1027 hPa)
ob: SPQU 160300Z VRB01KT CAVOK 14/07 Q1027 RMK PP000
cycle: 3

Station Type Date Time Source
SPQU TAF 2019/12/15 18:38 UTC NOAA

TAF SPQU 151700Z 1518/1618 24010KT 9999 FEW100 TX20/1618Z TN10/1610Z
FM160000 02006KT CAVOK
FM161400 24006KT CAVOK
FM161800 26010KT CAVOK

Example: see airport list